Nearby METAR Reports

 

KMTN - Baltimore/Martin, Maryland, USA
Distance from station: SSE 8mi, 13km
Updated: Wed, 23-Apr-2014 9:45pm EDT
Partly cloudy
Partly cloudy
 Wind from WNW
Wind: WNW 15 mph , 24 km/h, Gust: 25 mph , 41 km/h
Temperature: 50°F , 10°C
Wind Chill: 45°F , 7°C
Dew Point: 34°F , 1°C
Humidity: 54%
Barometer: 29.97 inHg , 1014.9 hPa
Clouds: Partly cloudy
Visibility: 10 miles , 16 km
Cloud details: Partly cloudy 5000 ft
2014/04/24 01:45 KMTN 240145Z 30013G22KT 10SM SCT050 10/01 A2997
KDMH - Baltimore/Dwntwn, Maryland, USA
Distance from station: SW 12mi, 19km
Updated: Wed, 23-Apr-2014 8:54pm EDT

 
Temperature: 52°F , 11°C
Dew Point: 32°F , 0°C
Humidity: 47%
Barometer: 29.92 inHg , 1013.2 hPa
2014/04/24 00:54 KDMH 240054Z AUTO 11/00 A2992 RMK AO1 SLP133 T01110000
 
KBWI - Balto/Wash Intl, Maryland, USA
Distance from station: SSW 20mi, 33km
Updated: Wed, 23-Apr-2014 8:54pm EDT
Few Clouds
Few Clouds
 Wind from NW
Wind: NW 16 mph , 26 km/h, Gust: 29 mph , 46 km/h
Temperature: 50°F , 10°C
Wind Chill: 44°F , 7°C
Dew Point: 30°F , -1°C
Humidity: 47%
Barometer: 29.92 inHg , 1013.2 hPa
Clouds: Few Clouds
Visibility: 10 miles , 16 km
Cloud details: Few Clouds 4700 ft
2014/04/24 00:54 KBWI 240054Z 31014G25KT 10SM FEW047 10/M01 A2992 RMK AO2 PK WND 31028/0030 SLP133 T01001006
KDMW - Carroll Cnty, Maryland, USA
Distance from station: WNW 30mi, 48km
Updated: Wed, 23-Apr-2014 9:35pm EDT
Clear
Clear
 Wind from NW
Wind: NW 5 mph , 7 km/h
Temperature: 45°F , 7°C
Wind Chill: 42°F , 6°C
Dew Point: 30°F , -1°C
Humidity: 57%
Barometer: 29.96 inHg , 1014.6 hPa
Clouds: Clear
Visibility: 10 miles , 16 km
2014/04/24 01:35 KDMW 240135Z AUTO 32004KT 10SM CLR 07/M01 A2996 RMK AO2
 
KNAK - Annapolis/Naval, Maryland, USA
Distance from station: S 30mi, 48km
Updated: Wed, 23-Apr-2014 8:54pm EDT
Clear
Clear
 Wind from NW
Wind: NW 15 mph , 24 km/h, Gust: 25 mph , 41 km/h
Temperature: 54°F , 12°C
Dew Point: 36°F , 2°C
Humidity: 51%
Barometer: 29.91 inHg , 1012.9 hPa
Clouds: Clear
Visibility: 10 miles , 16 km
2014/04/24 00:54 KNAK 240054Z AUTO 31013G22KT 10SM CLR 12/02 A2991 RMK AO2 SLP130 T01170017
KW29 - Stevensville, Maryland, USA
Distance from station: SSE 31mi, 50km
Updated: Wed, 23-Apr-2014 9:34pm EDT
Partly cloudy
Partly cloudy
 Wind from NW
Wind: NW 17 mph , 28 km/h, Gust: 25 mph , 41 km/h
Temperature: 52°F , 11°C
Dew Point: 36°F , 2°C
Humidity: 54%
Barometer: 29.94 inHg , 1013.9 hPa
Clouds: Partly cloudy
Visibility: 10 miles , 16 km
Cloud details: Partly cloudy 4600 ft
Partly cloudy 7500 ft
2014/04/24 01:34 KW29 240134Z AUTO 32015G22KT 10SM SCT046 SCT075 11/02 A2994 RMK AO1
 
KCGS - College Park, Maryland, USA
Distance from station: SW 38mi, 61km
Updated: Wed, 23-Apr-2014 9:35pm EDT
Clear
Clear
 Wind from NNW
Wind: NNW 13 mph , 20 km/h, Gust: 20 mph , 31 km/h
Temperature: 52°F , 11°C
Dew Point: 32°F , 0°C
Humidity: 47%
Barometer: 29.97 inHg , 1014.9 hPa
Clouds: Clear
Visibility: 10 miles , 16 km
2014/04/24 01:35 KCGS 240135Z AUTO 33011G17KT 10SM CLR 11/00 A2997 RMK AO1
KGAI - Gaithersburg, Maryland, USA
Distance from station: WSW 40mi, 65km
Updated: Wed, 23-Apr-2014 9:35pm EDT
Clear
Clear
 Wind from NNW
Wind: NNW 5 mph , 7 km/h, Gust: 16 mph , 26 km/h
Temperature: 46°F , 8°C
Wind Chill: 44°F , 7°C
Dew Point: 30°F , -1°C
Humidity: 53%
Barometer: 30.00 inHg , 1015.9 hPa
Clouds: Clear
Visibility: 10 miles , 16 km
2014/04/24 01:35 KGAI 240135Z AUTO 33004G14KT 10SM CLR 08/M01 A3000 RMK AO1
 
KTHV - York, Pennsylvania, USA
Distance from station: NNW 40mi, 65km
Updated: Wed, 23-Apr-2014 8:53pm EDT
Clear
Clear
 Wind from WNW
Wind: WNW 10 mph , 17 km/h
Temperature: 45°F , 7°C
Wind Chill: 40°F , 4°C
Dew Point: 30°F , -1°C
Humidity: 57%
Barometer: 29.94 inHg , 1013.9 hPa
Clouds: Clear
Visibility: 10 miles , 16 km
2014/04/24 00:53 KTHV 240053Z AUTO 30009KT 10SM CLR 07/M01 A2994 RMK AO2 SLP142 T00721011
KFDK - Frederick, Maryland, USA
Distance from station: W 47mi, 75km
Updated: Wed, 23-Apr-2014 9:30pm EDT
Clear
Clear
 Wind from NW
Wind: NW 9 mph , 15 km/h, Gust: 20 mph , 31 km/h
Temperature: 46°F , 8°C
Wind Chill: 41°F , 5°C
Dew Point: 34°F , 1°C
Humidity: 62%
Barometer: 30.00 inHg , 1015.9 hPa
Clouds: Clear
Visibility: 10 miles , 16 km
2014/04/24 01:30 KFDK 240130Z AUTO 31008G17KT 10SM CLR 08/01 A3000 RMK AO2
 
KESN - Easton/Newnam, Maryland, USA
Distance from station: SSE 48mi, 78km
Updated: Wed, 23-Apr-2014 8:50pm EDT
Clear
Clear
 Wind from NNW
Wind: NNW 15 mph , 24 km/h, Gust: 26 mph , 43 km/h
Temperature: 54°F , 12°C
Dew Point: 37°F , 3°C
Humidity: 54%
Barometer: 29.92 inHg , 1013.2 hPa
Clouds: Clear
Visibility: 10 miles , 16 km
2014/04/24 00:50 KESN 240050Z 33013G23KT 10SM SKC 12/03 A2992
KDCA - Washington/Natl, Washington D.c., USA
Distance from station: SW 49mi, 79km
Updated: Wed, 23-Apr-2014 9:52pm EDT
Clear
Clear
 Wind from NNW
Wind: NNW 16 mph , 26 km/h, Gust: 23 mph , 37 km/h
Temperature: 52°F , 11°C
Dew Point: 32°F , 0°C
Humidity: 47%
Barometer: 29.98 inHg , 1015.2 hPa
Clouds: Clear
Visibility: 10 miles , 16 km
2014/04/24 01:52 KDCA 240152Z 34014G20KT 10SM CLR 11/00 A2998 RMK AO2 SLP153 T01110000 $
 
KLNS - Lancaster, Pennsylvania, USA
Distance from station: N 49mi, 79km
Updated: Wed, 23-Apr-2014 8:53pm EDT
Clear
Clear
 Wind from NW
Wind: NW 14 mph , 22 km/h
Temperature: 45°F , 7°C
Wind Chill: 39°F , 4°C
Dew Point: 30°F , -1°C
Humidity: 57%
Barometer: 29.90 inHg , 1012.5 hPa
Clouds: Clear
Visibility: 10 miles , 16 km
2014/04/24 00:53 KLNS 240053Z 32012KT 10SM CLR 07/M01 A2990 RMK AO2 PK WND 29027/0000 SLP127 T00721011
KILG - Wilmington, Delaware, USA
Distance from station: ENE 50mi, 81km
Updated: Wed, 23-Apr-2014 9:51pm EDT
Clear
Clear
 Wind from WNW
Wind: WNW 14 mph , 22 km/h, Gust: 22 mph , 35 km/h
Temperature: 48°F , 9°C
Wind Chill: 42°F , 6°C
Dew Point: 32°F , 0°C
Humidity: 54%
Barometer: 29.92 inHg , 1013.2 hPa
Clouds: Clear
Visibility: 10 miles , 16 km
2014/04/24 01:51 KILG 240151Z 30012G19KT 10SM CLR 09/00 A2992 RMK AO2 PK WND 31027/0056 SLP131 T00890000